Providence, Rhode Island
Traffic Map
Current Weather Conditions
Providence, Rhode Island
Few Clouds
Few Clouds
43°
Feels Like: 39°
Wind Chill: 39° Ceiling: Unl
Heat Index: 43° Visibility: 10mi
Dew Point: 28° Wind: 7mph
Humidity: 56% Direction: 240° (WSW)
Pressure: 29.78in Gusts: 0mph
Raw Report DataKPVD 030151Z 24006KT 10SM FEW055 FEW080 06/M02 A2978 RMK AO2 SLP086 T00611022
Traffic Incident Summary
Active as of:
Severity:
Category:
InformationThere was an issue retrieving the traffic information for this location. Please try a different location or try again shortly.
Advertisements
Track Severe Weather on mobile